Time;durP1;ratioP1;P1;durP2;ratioP2;P2;SDS_P1;SDS_P2;PMS_P1;PMS_P2;Temp;Humidity;BMP_temperature;BMP_pressure;BME280_temperature;BME280_humidity;BME280_pressure;Samples;Min_cycle;Max_cycle;Signal;HPM_P1;HPM_P2
2021/07/24 00:00:54;;;;;;;6.05;5.30;;;;;;;26.76;46.71;99643.02;1714988;83;21494;-70
2021/07/24 00:03:21;;;;;;;7.55;5.22;;;;;;;26.76;46.74;99645.73;1714612;83;21537;-71
2021/07/24 00:05:47;;;;;;;5.50;5.00;;;;;;;26.76;46.74;99643.57;1708820;82;21042;-71
2021/07/24 00:08:13;;;;;;;5.35;4.85;;;;;;;26.75;46.73;99644.65;1715445;83;21546;-71
2021/07/24 00:10:39;;;;;;;5.90;4.85;;;;;;;26.73;46.77;99640.83;1746599;81;21086;-71
2021/07/24 00:13:07;;;;;;;5.90;5.20;;;;;;;26.73;46.76;99648.20;1745446;82;20990;-72
2021/07/24 00:15:36;;;;;;;5.50;4.83;;;;;;;26.72;46.80;99650.12;1748101;82;20994;-71
2021/07/24 00:18:04;;;;;;;5.67;5.17;;;;;;;26.71;46.82;99657.20;1735439;82;21005;-71
2021/07/24 00:20:30;;;;;;;5.90;5.33;;;;;;;26.69;46.84;99662.92;1724632;82;21110;-71
2021/07/24 00:22:57;;;;;;;5.92;5.37;;;;;;;26.69;46.83;99658.83;1749009;82;22346;-73
2021/07/24 00:25:23;;;;;;;5.20;4.70;;;;;;;26.69;46.84;99657.47;1744524;82;21059;-71
2021/07/24 00:27:49;;;;;;;5.87;5.28;;;;;;;26.68;46.85;99659.94;1737243;81;21063;-70
2021/07/24 00:30:16;;;;;;;6.55;5.53;;;;;;;26.66;46.91;99656.13;1710884;83;21473;-70
2021/07/24 00:32:44;;;;;;;7.50;5.30;;;;;;;26.67;46.84;99655.57;1717336;82;21018;-70
2021/07/24 00:35:10;;;;;;;5.30;4.72;;;;;;;26.66;46.78;99656.68;1719263;82;21812;-71
2021/07/24 00:37:37;;;;;;;5.67;5.17;;;;;;;26.65;46.81;99657.20;1682334;85;21058;-72
2021/07/24 00:40:05;;;;;;;7.20;5.45;;;;;;;26.65;46.81;99655.03;1719321;83;21049;-69
2021/07/24 00:42:31;;;;;;;6.22;5.62;;;;;;;26.65;46.84;99652.31;1659194;85;21074;-70
2021/07/24 00:45:04;;;;;;;8.75;6.15;;;;;;;26.63;46.87;99653.94;1684156;85;21046;-70
2021/07/24 00:47:41;;;;;;;10.90;5.75;;;;;;;26.62;46.88;99656.97;1707502;82;21107;-69
2021/07/24 00:50:15;;;;;;;6.03;5.50;;;;;;;26.61;46.90;99652.05;1708068;83;21047;-71
2021/07/24 00:52:43;;;;;;;6.30;5.65;;;;;;;26.59;46.94;99654.78;1709486;83;21026;-71
2021/07/24 00:55:12;;;;;;;7.05;5.20;;;;;;;26.57;46.91;99650.94;1683665;84;21042;-72
2021/07/24 00:57:44;;;;;;;5.97;5.37;;;;;;;26.57;46.92;99655.58;1742419;81;21096;-71
2021/07/24 01:00:12;;;;;;;6.25;5.55;;;;;;;26.56;46.85;99648.48;1736401;81;21567;-71
2021/07/24 01:02:39;;;;;;;5.87;4.92;;;;;;;26.55;46.88;99650.95;1730859;80;21055;-71
2021/07/24 01:05:07;;;;;;;7.03;5.47;;;;;;;26.54;46.84;99649.30;1745409;80;21030;-71
2021/07/24 01:07:36;;;;;;;6.45;5.78;;;;;;;26.52;46.81;99650.97;1746955;81;20999;-71
2021/07/24 01:10:04;;;;;;;6.25;5.60;;;;;;;26.52;46.87;99644.69;1727231;81;21247;-70
2021/07/24 01:12:34;;;;;;;5.70;5.20;;;;;;;26.51;46.85;99645.79;1717446;82;21107;-71
2021/07/24 01:15:04;;;;;;;6.17;5.47;;;;;;;26.51;46.86;99652.60;1716426;82;21039;-69
2021/07/24 01:17:31;;;;;;;6.35;5.62;;;;;;;26.51;46.76;99653.96;1730210;82;21045;-70
2021/07/24 01:19:58;;;;;;;7.87;5.45;;;;;;;26.51;46.62;99649.87;1716986;82;21021;-69
2021/07/24 01:22:28;;;;;;;6.25;5.65;;;;;;;26.49;46.58;99652.31;1716530;82;21113;-70
2021/07/24 01:24:55;;;;;;;5.83;5.28;;;;;;;26.48;46.49;99653.42;1719139;82;21152;-69
2021/07/24 01:27:22;;;;;;;5.67;5.12;;;;;;;26.47;46.49;99647.69;1719091;81;21050;-68
2021/07/24 01:29:49;;;;;;;6.30;5.80;;;;;;;26.46;46.52;99654.25;1726786;82;21040;-69
2021/07/24 01:32:17;;;;;;;6.15;5.55;;;;;;;26.46;46.46;99659.70;1706110;82;21093;-71
2021/07/24 01:34:46;;;;;;;6.37;5.42;;;;;;;26.45;46.38;99656.69;1715254;82;21566;-71
2021/07/24 01:37:13;;;;;;;6.42;5.30;;;;;;;26.44;46.44;99659.68;1716531;82;21057;-70
2021/07/24 01:39:40;;;;;;;6.37;5.45;;;;;;;26.43;46.42;99657.51;1718227;82;21263;-70
2021/07/24 01:42:07;;;;;;;5.92;5.42;;;;;;;26.43;46.45;99660.78;1727711;82;21521;-70
2021/07/24 01:44:35;;;;;;;6.03;5.45;;;;;;;26.41;46.54;99659.69;1698148;82;21025;-71
2021/07/24 01:47:04;;;;;;;6.10;5.55;;;;;;;26.41;46.50;99655.61;1715706;82;21038;-71
2021/07/24 01:52:46;;;;;;;6.08;5.47;;;;;;;26.38;46.46;99656.14;1723600;82;21003;-72
2021/07/24 01:55:22;;;;;;;7.55;6.00;;;;;;;26.37;46.51;99655.08;1728383;82;21252;-71
2021/07/24 01:57:57;;;;;;;6.12;5.55;;;;;;;26.35;46.49;99659.44;1729610;81;21026;-71
2021/07/24 02:00:25;;;;;;;6.05;5.47;;;;;;;26.34;46.54;99654.26;1732272;82;21060;-70
2021/07/24 02:02:54;;;;;;;6.37;5.72;;;;;;;26.33;46.61;99656.70;1719236;82;21154;-70
2021/07/24 02:05:46;;;;;;;6.58;5.97;;;;;;;26.34;46.62;99655.06;1715423;82;21561;-70
2021/07/24 02:08:21;;;;;;;8.90;5.42;;;;;;;26.33;46.60;99655.33;1703934;82;21631;-69
2021/07/24 02:10:48;;;;;;;6.70;5.87;;;;;;;26.31;46.74;99658.87;1745945;82;21536;-68
2021/07/24 02:13:15;;;;;;;7.37;5.85;;;;;;;26.29;46.73;99655.91;1723310;81;21048;-67
2021/07/24 02:15:43;;;;;;;7.58;6.05;;;;;;;26.29;46.79;99659.98;1716659;82;21208;-70
2021/07/24 02:18:16;;;;;;;6.22;5.58;;;;;;;26.29;46.81;99657.81;1746289;81;20989;-69
2021/07/24 02:20:46;;;;;;;6.15;5.60;;;;;;;26.27;46.79;99654.00;1733054;82;25636;-68
2021/07/24 02:24:01;;;;;;;7.05;5.60;;;;;;;26.31;46.80;99654.80;1881641;75;22447;-71
2021/07/24 02:26:28;;;;;;;5.62;5.12;;;;;;;26.26;46.77;99658.35;1854606;77;20982;-69
2021/07/24 02:28:54;;;;;;;7.55;5.55;;;;;;;26.25;46.78;99656.19;1853399;77;21232;-71
2021/07/24 02:31:21;;;;;;;6.65;5.33;;;;;;;26.25;46.78;99658.06;1837998;77;21024;-69
2021/07/24 02:33:48;;;;;;;6.50;5.90;;;;;;;26.25;46.83;99653.98;1837149;77;20922;-71
2021/07/24 02:36:16;;;;;;;6.95;6.25;;;;;;;26.24;46.90;99658.62;1853417;77;20985;-70
2021/07/24 02:38:43;;;;;;;7.60;6.12;;;;;;;26.23;46.91;99661.09;1856324;77;21087;-71
2021/07/24 02:41:10;;;;;;;6.78;6.17;;;;;;;26.23;46.91;99661.61;1837912;77;21190;-71
2021/07/24 02:43:37;;;;;;;8.25;6.20;;;;;;;26.21;46.91;99663.27;1843524;77;21501;-72
2021/07/24 02:46:04;;;;;;;5.92;5.42;;;;;;;26.21;46.89;99663.80;1841854;77;21001;-71
2021/07/24 02:48:31;;;;;;;8.45;5.83;;;;;;;26.21;46.90;99664.63;1846181;77;21025;-71
2021/07/24 02:51:05;;;;;;;6.70;5.97;;;;;;;26.21;46.86;99663.80;1853512;77;21017;-71
2021/07/24 02:53:33;;;;;;;6.40;5.90;;;;;;;26.21;46.86;99667.88;1822070;77;21110;-71
2021/07/24 02:56:01;;;;;;;6.62;6.03;;;;;;;26.20;46.84;99669.79;1854681;77;21032;-71
2021/07/24 02:58:28;;;;;;;6.60;6.00;;;;;;;26.21;46.80;99666.52;1843875;77;20982;-71
2021/07/24 03:00:54;;;;;;;6.40;5.60;;;;;;;26.20;46.81;99666.26;1844574;77;21009;-70
2021/07/24 03:03:21;;;;;;;6.60;5.97;;;;;;;26.20;46.78;99665.70;1853267;77;21060;-70
2021/07/24 03:05:49;;;;;;;5.87;5.37;;;;;;;26.14;46.79;99659.19;1844934;77;21052;-70
2021/07/24 03:08:16;;;;;;;8.45;6.37;;;;;;;26.21;46.74;99671.96;1847153;77;21067;-71
2021/07/24 03:10:44;;;;;;;7.25;6.42;;;;;;;26.21;46.66;99669.23;1849656;77;21025;-70
2021/07/24 03:13:10;;;;;;;9.30;7.00;;;;;;;26.21;46.68;99667.88;1844871;77;21989;-71
2021/07/24 03:15:37;;;;;;;7.20;6.08;;;;;;;26.20;46.63;99671.70;1816151;77;21524;-69
2021/07/24 03:18:05;;;;;;;6.35;5.75;;;;;;;26.21;46.61;99673.32;1850319;77;21010;-69
2021/07/24 03:20:31;;;;;;;6.15;5.65;;;;;;;26.21;46.56;99670.59;1839114;75;21489;-69
2021/07/24 03:22:59;;;;;;;8.20;6.42;;;;;;;26.20;46.57;99675.79;1849757;77;21082;-70
2021/07/24 03:25:27;;;;;;;7.00;6.30;;;;;;;26.20;46.58;99676.59;1851978;77;21094;-71
2021/07/24 03:27:54;;;;;;;7.20;6.40;;;;;;;26.20;46.65;99677.15;1845895;77;21088;-71
2021/07/24 03:30:20;;;;;;;8.10;5.85;;;;;;;26.20;46.71;99682.05;1862557;77;21123;-69
2021/07/24 03:32:47;;;;;;;6.20;5.70;;;;;;;26.21;46.69;99691.86;1836917;77;21086;-69
2021/07/24 03:35:14;;;;;;;6.80;6.00;;;;;;;26.21;46.68;99689.66;1835006;77;21022;-68
2021/07/24 03:37:41;;;;;;;6.42;5.83;;;;;;;26.21;46.62;99685.57;1841828;77;21123;-69
2021/07/24 03:40:08;;;;;;;23.65;18.50;;;;;;;26.22;46.61;99691.30;1839589;77;21024;-70
2021/07/24 03:42:34;;;;;;;9.93;8.45;;;;;;;26.21;46.59;99686.41;1836401;77;21083;-70
2021/07/24 03:45:01;;;;;;;8.03;7.33;;;;;;;26.22;46.54;99684.50;1857756;77;21565;-70
2021/07/24 03:47:27;;;;;;;8.65;7.08;;;;;;;26.22;46.50;99685.86;1853844;77;21052;-70
2021/07/24 03:49:54;;;;;;;7.75;6.85;;;;;;;26.21;46.44;99687.77;1835764;77;21008;-69
2021/07/24 03:52:22;;;;;;;7.03;6.20;;;;;;;26.21;46.45;99683.69;1853091;77;20993;-70
2021/07/24 03:54:48;;;;;;;7.70;6.90;;;;;;;26.22;46.49;99689.94;1860115;77;21183;-70
2021/07/24 03:57:14;;;;;;;7.12;6.37;;;;;;;26.21;46.45;99691.02;1861801;77;20993;-70
2021/07/24 03:59:41;;;;;;;7.47;6.78;;;;;;;26.22;46.43;99689.39;1856164;77;21020;-70
2021/07/24 04:02:12;;;;;;;6.80;6.20;;;;;;;26.22;46.49;99689.94;1851197;77;21051;-69
2021/07/24 04:04:36;;;;;;;6.80;6.10;;;;;;;26.23;46.44;99696.48;1853660;77;20965;-70
2021/07/24 04:07:03;;;;;;;6.50;5.87;;;;;;;26.24;46.49;99698.10;1846201;77;21124;-69
2021/07/24 04:09:29;;;;;;;6.80;6.10;;;;;;;26.24;46.58;99698.10;1838753;77;21621;-69
2021/07/24 04:11:59;;;;;;;7.30;6.60;;;;;;;26.25;46.58;99694.83;1834084;77;21475;-70
2021/07/24 04:14:26;;;;;;;10.10;9.10;;;;;;;26.27;46.45;99694.03;1839722;76;20995;-69
2021/07/24 04:16:53;;;;;;;7.37;6.67;;;;;;;26.29;46.47;99694.58;1860172;77;21092;-69
2021/07/24 04:19:19;;;;;;;7.17;6.47;;;;;;;26.30;46.43;99693.47;1847868;77;21079;-69
2021/07/24 04:21:45;;;;;;;7.37;6.03;;;;;;;26.32;46.35;99689.92;1853429;77;21493;-68
2021/07/24 04:24:12;;;;;;;6.80;6.20;;;;;;;26.33;46.38;99693.45;1841559;77;21013;-69
2021/07/24 04:26:38;;;;;;;6.65;5.97;;;;;;;26.35;46.25;99690.75;1807833;77;21034;-69
2021/07/24 04:29:08;;;;;;;7.47;6.12;;;;;;;26.38;46.21;99692.91;1844613;77;21509;-70
2021/07/24 04:31:34;;;;;;;8.45;6.37;;;;;;;26.41;46.14;99692.92;1845937;77;21085;-70
2021/07/24 04:34:00;;;;;;;7.67;6.80;;;;;;;26.43;46.14;99690.74;1779178;79;21049;-71
2021/07/24 04:36:27;;;;;;;7.33;6.62;;;;;;;26.44;46.10;99686.91;1833546;77;21510;-71
2021/07/24 04:38:55;;;;;;;7.83;7.03;;;;;;;26.45;45.99;99690.73;1813390;77;21049;-70
2021/07/24 04:41:21;;;;;;;7.15;6.45;;;;;;;26.46;46.01;99691.54;1833021;77;21018;-70
2021/07/24 04:43:48;;;;;;;7.30;6.60;;;;;;;26.45;45.95;99686.64;1841735;77;21456;-70
2021/07/24 04:46:14;;;;;;;7.40;6.70;;;;;;;26.48;45.76;99692.08;1828454;77;21527;-70
2021/07/24 04:48:40;;;;;;;7.25;6.58;;;;;;;26.49;45.77;99691.00;1841115;77;20998;-68
2021/07/24 04:51:07;;;;;;;7.90;7.10;;;;;;;26.51;45.81;99693.45;1840660;77;21032;-68
2021/07/24 04:53:33;;;;;;;8.13;7.08;;;;;;;26.52;45.91;99696.44;1825602;77;21017;-68
2021/07/24 04:56:01;;;;;;;7.22;6.30;;;;;;;26.52;45.75;99698.64;1846363;77;21720;-68
2021/07/24 04:58:28;;;;;;;6.75;5.97;;;;;;;26.52;45.77;99697.27;1847429;77;21006;-67
2021/07/24 05:00:54;;;;;;;7.47;6.72;;;;;;;26.53;45.87;99696.17;1785752;77;22021;-68
2021/07/24 05:03:21;;;;;;;7.97;6.83;;;;;;;26.55;46.08;99700.80;1844914;77;21068;-68
2021/07/24 05:05:49;;;;;;;10.63;7.37;;;;;;;26.57;46.76;99699.97;1847302;77;21013;-68
2021/07/24 05:08:15;;;;;;;8.05;6.97;;;;;;;26.61;47.21;99704.36;1847108;76;21087;-70
2021/07/24 05:10:41;;;;;;;14.63;7.95;;;;;;;26.62;47.37;99700.55;1850293;77;21524;-67
2021/07/24 05:13:08;;;;;;;11.28;8.13;;;;;;;26.64;47.42;99699.73;1818643;77;21612;-67
2021/07/24 05:15:37;;;;;;;17.60;8.38;;;;;;;26.68;47.34;99700.81;1832953;77;21030;-69
2021/07/24 05:18:06;;;;;;;11.83;7.37;;;;;;;26.70;47.26;99699.98;1810124;77;21025;-68
2021/07/24 05:20:33;;;;;;;12.20;7.90;;;;;;;26.72;46.99;99695.63;1821888;77;21949;-69
2021/07/24 05:23:00;;;;;;;8.83;6.92;;;;;;;26.73;46.90;99691.24;1849238;77;21490;-68
2021/07/24 05:25:26;;;;;;;13.00;7.55;;;;;;;26.75;46.89;99697.23;1846354;77;21054;-70
2021/07/24 05:27:53;;;;;;;12.43;7.00;;;;;;;26.76;46.87;99690.70;1846596;77;21482;-68
2021/07/24 05:30:20;;;;;;;10.70;7.53;;;;;;;26.79;46.81;99698.34;1826862;77;21553;-70
2021/07/24 05:32:46;;;;;;;9.08;7.33;;;;;;;26.81;46.71;99698.88;1832092;77;21136;-69
2021/07/24 05:35:12;;;;;;;10.18;7.15;;;;;;;26.82;46.71;99689.59;1814755;77;21009;-69
2021/07/24 05:37:39;;;;;;;7.85;6.95;;;;;;;26.84;46.58;99703.75;1839267;77;20997;-70
2021/07/24 05:40:07;;;;;;;11.12;7.33;;;;;;;26.86;46.46;99690.66;1775593;80;21045;-69
2021/07/24 05:42:33;;;;;;;8.80;7.47;;;;;;;26.88;46.40;99695.28;1798669;79;21085;-69
2021/07/24 05:45:00;;;;;;;7.53;6.80;;;;;;;26.90;46.33;99697.74;1797782;79;21777;-69
2021/07/24 05:47:29;;;;;;;13.32;8.23;;;;;;;26.91;46.26;99698.02;1805353;79;21033;-69
2021/07/24 05:49:55;;;;;;;8.65;7.03;;;;;;;26.95;46.24;99698.29;1789390;79;21084;-69
2021/07/24 05:52:21;;;;;;;8.33;6.95;;;;;;;26.96;46.21;99697.18;1823350;77;21580;-69
2021/07/24 05:54:48;;;;;;;8.35;7.42;;;;;;;26.98;46.20;99697.72;1848408;77;21490;-70
2021/07/24 05:57:15;;;;;;;8.78;7.47;;;;;;;27.00;46.10;99699.06;1830077;77;21130;-69
2021/07/24 05:59:42;;;;;;;8.20;6.85;;;;;;;27.02;45.98;99700.99;1808687;77;21043;-70
2021/07/24 06:02:13;;;;;;;8.50;7.70;;;;;;;27.04;45.82;99702.89;1829336;77;21138;-70
2021/07/24 06:04:40;;;;;;;9.00;7.53;;;;;;;27.06;45.72;99702.06;1834973;77;20974;-70
2021/07/24 06:07:07;;;;;;;9.55;6.97;;;;;;;27.08;45.71;99704.48;1826323;77;21538;-69
2021/07/24 06:09:33;;;;;;;7.92;6.60;;;;;;;27.10;45.70;99697.40;1819335;77;21087;-70
2021/07/24 06:11:59;;;;;;;8.70;6.97;;;;;;;27.12;45.68;99696.05;1845926;77;20990;-68
2021/07/24 06:14:26;;;;;;;7.55;6.80;;;;;;;27.14;45.67;99700.67;1775444;80;21017;-69
2021/07/24 06:16:52;;;;;;;7.67;6.97;;;;;;;27.15;45.56;99696.83;1776835;79;20991;-69
2021/07/24 06:19:19;;;;;;;11.03;6.90;;;;;;;27.17;45.63;99697.92;1807482;79;21015;-70
2021/07/24 06:21:46;;;;;;;9.48;6.47;;;;;;;27.20;45.54;99696.02;1774350;79;21855;-69
2021/07/24 06:24:13;;;;;;;9.18;6.97;;;;;;;27.22;45.49;99700.64;1795789;79;21534;-69
2021/07/24 06:26:39;;;;;;;8.20;6.67;;;;;;;27.24;45.40;99699.28;1783524;78;21554;-69
2021/07/24 06:29:06;;;;;;;7.67;6.95;;;;;;;27.26;45.26;99699.02;1785950;78;21001;-70
2021/07/24 06:31:33;;;;;;;8.63;6.65;;;;;;;27.29;45.01;99699.80;1772925;79;21486;-69
2021/07/24 06:34:02;;;;;;;8.50;7.08;;;;;;;27.31;44.82;99696.80;1802001;79;21952;-70
2021/07/24 06:36:28;;;;;;;8.70;7.05;;;;;;;27.32;44.75;99705.26;1801684;79;21100;-69
2021/07/24 06:38:56;;;;;;;7.45;6.75;;;;;;;27.34;44.73;99709.33;1811718;79;21353;-68
2021/07/24 06:41:26;;;;;;;10.65;6.85;;;;;;;27.36;44.78;99707.13;1809342;78;20998;-70
2021/07/24 06:43:52;;;;;;;8.58;6.97;;;;;;;27.38;44.72;99700.04;1813051;79;21481;-70
2021/07/24 06:46:20;;;;;;;7.65;6.85;;;;;;;27.40;44.61;99698.66;1810390;78;21823;-69
2021/07/24 06:48:46;;;;;;;7.00;6.20;;;;;;;27.43;44.62;99701.39;1811398;79;20978;-69
2021/07/24 06:51:13;;;;;;;8.95;7.08;;;;;;;27.46;44.59;99700.81;1812924;79;21017;-70
2021/07/24 06:53:39;;;;;;;8.50;7.25;;;;;;;27.47;44.40;99695.63;1811783;79;21014;-69
2021/07/24 06:56:06;;;;;;;7.22;6.28;;;;;;;27.49;44.33;99697.53;1809905;79;21042;-70
2021/07/24 06:58:33;;;;;;;9.43;6.70;;;;;;;27.52;44.27;99697.50;1795805;78;21870;-69
2021/07/24 07:01:00;;;;;;;8.55;6.85;;;;;;;27.53;44.31;99698.59;1803421;79;21580;-70
2021/07/24 07:03:26;;;;;;;8.33;7.15;;;;;;;27.55;44.25;99699.13;1806369;78;21072;-69
2021/07/24 07:05:53;;;;;;;8.28;6.87;;;;;;;27.56;44.32;99704.83;1810372;78;21045;-72
2021/07/24 07:08:19;;;;;;;8.20;7.37;;;;;;;27.57;44.30;99705.11;1809673;79;21036;-69
2021/07/24 07:10:45;;;;;;;7.58;6.80;;;;;;;27.58;44.03;99703.19;1799328;78;21974;-70
2021/07/24 07:13:12;;;;;;;8.95;7.10;;;;;;;27.59;43.86;99706.20;1804906;79;21615;-69
2021/07/24 07:15:38;;;;;;;7.65;6.95;;;;;;;27.59;43.86;99701.55;1805021;79;21096;-70
2021/07/24 07:18:05;;;;;;;10.50;7.12;;;;;;;27.60;43.96;99701.00;1797312;79;21045;-69
2021/07/24 07:20:31;;;;;;;7.87;6.62;;;;;;;27.62;43.93;99701.53;1786327;78;21070;-69
2021/07/24 07:22:58;;;;;;;8.35;7.08;;;;;;;27.64;43.94;99700.70;1801205;79;21468;-70
2021/07/24 07:25:24;;;;;;;9.15;7.53;;;;;;;27.68;43.78;99700.95;1807459;79;21085;-71
2021/07/24 07:27:50;;;;;;;7.17;6.58;;;;;;;27.70;43.81;99706.94;1775791;80;21019;-71
2021/07/24 07:30:18;;;;;;;7.30;6.65;;;;;;;27.70;43.86;99705.05;1805419;79;21041;-69
2021/07/24 07:32:44;;;;;;;7.72;7.03;;;;;;;27.72;43.85;99702.84;1791232;79;21033;-70
2021/07/24 07:35:11;;;;;;;7.40;6.72;;;;;;;27.74;43.78;99706.63;1774438;79;21777;-68
2021/07/24 07:37:50;;;;;;;7.42;6.83;;;;;;;27.76;43.61;99702.55;1811448;77;21022;-70
2021/07/24 07:40:18;;;;;;;9.25;7.55;;;;;;;27.78;43.48;99703.63;1820769;77;21525;-70
2021/07/24 07:42:45;;;;;;;7.55;6.67;;;;;;;27.80;43.57;99705.53;1817817;77;21637;-69
2021/07/24 07:45:11;;;;;;;7.85;6.78;;;;;;;27.81;43.48;99707.14;1833453;77;21029;-71
2021/07/24 07:47:38;;;;;;;7.90;6.67;;;;;;;27.83;43.12;99711.23;1819085;77;21102;-70
2021/07/24 07:50:06;;;;;;;7.25;6.58;;;;;;;27.84;42.70;99706.03;1833048;77;21029;-69
2021/07/24 07:52:32;;;;;;;7.22;6.53;;;;;;;27.84;42.87;99707.95;1831599;77;21030;-69
2021/07/24 07:55:00;;;;;;;7.53;6.75;;;;;;;27.84;42.54;99707.95;1829173;77;21553;-70
2021/07/24 07:57:26;;;;;;;7.92;7.12;;;;;;;27.85;42.84;99704.95;1845202;76;21003;-70
2021/07/24 07:59:54;;;;;;;7.60;6.65;;;;;;;27.85;42.97;99701.38;1837210;77;21954;-69
2021/07/24 08:02:20;;;;;;;7.12;6.50;;;;;;;27.87;42.97;99706.00;1841966;77;20991;-70
2021/07/24 08:04:48;;;;;;;7.72;7.00;;;;;;;27.89;42.92;99705.20;1839775;77;21072;-69
2021/07/24 08:07:16;;;;;;;8.33;6.67;;;;;;;27.93;42.99;99702.72;1828893;77;21038;-70
2021/07/24 08:09:44;;;;;;;7.92;7.05;;;;;;;27.96;43.00;99706.26;1842625;77;21026;-69
2021/07/24 08:12:11;;;;;;;8.15;7.30;;;;;;;27.99;42.73;99707.88;1839841;77;21213;-69
2021/07/24 08:14:37;;;;;;;7.15;6.35;;;;;;;28.02;42.50;99708.66;1826935;77;21034;-69
2021/07/24 08:17:07;;;;;;;7.33;6.67;;;;;;;28.04;42.22;99705.64;1833387;77;22142;-69
2021/07/24 08:19:35;;;;;;;7.40;6.70;;;;;;;28.07;41.68;99719.27;1843748;77;21076;-70
2021/07/24 08:22:01;;;;;;;7.60;6.85;;;;;;;28.08;41.44;99714.09;1823212;77;21021;-69
2021/07/24 08:24:28;;;;;;;7.15;6.55;;;;;;;28.08;41.35;99709.98;1842896;77;21082;-69
2021/07/24 08:26:54;;;;;;;7.70;6.75;;;;;;;28.09;41.59;99708.91;1836144;77;21475;-70
2021/07/24 08:29:20;;;;;;;7.45;6.85;;;;;;;28.11;41.51;99708.06;1834038;78;21026;-70
2021/07/24 08:31:46;;;;;;;7.87;7.08;;;;;;;28.12;41.35;99713.22;1835459;77;21099;-69
2021/07/24 08:34:13;;;;;;;7.90;7.20;;;;;;;28.14;41.49;99708.84;1830299;77;21032;-69
2021/07/24 08:36:40;;;;;;;7.95;7.08;;;;;;;28.17;41.66;99711.02;1830771;78;21327;-68
2021/07/24 08:39:06;;;;;;;8.63;7.67;;;;;;;28.20;41.30;99709.06;1829775;77;21501;-69
2021/07/24 08:41:33;;;;;;;7.22;6.62;;;;;;;28.23;40.96;99713.96;1832501;78;21014;-70
2021/07/24 08:43:59;;;;;;;7.25;6.55;;;;;;;28.26;40.64;99709.30;1829328;77;21077;-69
2021/07/24 08:46:26;;;;;;;8.13;7.33;;;;;;;28.28;40.75;99712.56;1826809;77;21032;-69
2021/07/24 08:48:52;;;;;;;9.05;7.78;;;;;;;28.32;40.69;99706.78;1817576;77;21788;-69
2021/07/24 08:51:18;;;;;;;7.42;6.62;;;;;;;28.36;40.66;99702.94;1828743;78;20979;-69
2021/07/24 08:53:45;;;;;;;7.90;7.10;;;;;;;28.39;40.07;99696.31;1831651;77;21066;-69
2021/07/24 08:56:23;;;;;;;8.38;7.53;;;;;;;28.40;39.88;99699.33;1836956;78;21093;-70
2021/07/24 08:58:46;;;;;;;8.63;7.30;;;;;;;28.42;39.67;99705.31;1836949;78;21463;-71
2021/07/24 09:01:20;;;;;;;8.03;6.53;;;;;;;28.45;39.55;99706.65;1805998;77;21120;-70
2021/07/24 09:03:48;;;;;;;8.38;7.53;;;;;;;28.46;39.13;99708.85;1818663;77;21544;-70
2021/07/24 09:06:21;;;;;;;8.08;7.28;;;;;;;28.47;39.00;99702.27;1829690;78;21467;-70
2021/07/24 09:08:52;;;;;;;7.95;7.10;;;;;;;28.48;39.07;99702.55;1824282;77;21573;-69
2021/07/24 09:11:19;;;;;;;8.43;7.22;;;;;;;28.50;39.22;99697.61;1821895;78;21025;-69
2021/07/24 09:13:46;;;;;;;8.38;7.37;;;;;;;28.54;39.26;99702.78;1825843;77;21065;-70
2021/07/24 09:16:14;;;;;;;8.65;7.80;;;;;;;28.57;39.49;99692.09;1833327;77;21400;-70
2021/07/24 09:18:41;;;;;;;7.45;6.85;;;;;;;28.62;39.61;99693.39;1834471;77;21053;-70
2021/07/24 09:21:08;;;;;;;7.78;7.10;;;;;;;28.67;39.79;99695.27;1836565;77;21069;-69
2021/07/24 09:23:39;;;;;;;6.97;6.28;;;;;;;28.71;40.21;99694.95;1835988;77;21538;-69
2021/07/24 09:26:06;;;;;;;7.85;7.05;;;;;;;28.75;40.44;99697.37;1849223;77;21133;-69
2021/07/24 09:28:33;;;;;;;8.10;7.22;;;;;;;28.77;39.37;99696.52;1849894;77;21072;-69
2021/07/24 09:31:20;;;;;;;9.00;6.97;;;;;;;28.79;39.31;99701.70;1845864;77;21041;-68
2021/07/24 09:33:50;;;;;;;9.25;7.17;;;;;;;28.82;39.15;99702.50;1833939;77;21556;-70
2021/07/24 09:36:36;;;;;;;7.17;6.47;;;;;;;28.83;39.08;99704.11;1834681;77;21033;-69
2021/07/24 09:39:13;;;;;;;8.73;7.28;;;;;;;28.85;39.47;99701.09;1820875;77;21094;-68
2021/07/24 09:41:42;;;;;;;7.50;6.72;;;;;;;28.85;38.78;99701.09;1821123;77;21057;-69
2021/07/24 09:44:09;;;;;;;7.85;7.05;;;;;;;28.88;38.67;99699.13;1842791;77;21026;-69
2021/07/24 09:46:36;;;;;;;8.60;7.20;;;;;;;28.89;38.48;99693.94;1846157;77;20961;-68
2021/07/24 09:49:15;;;;;;;7.00;6.37;;;;;;;28.89;38.33;99686.55;1842576;77;21033;-69
2021/07/24 09:51:43;;;;;;;8.95;8.05;;;;;;;28.89;38.46;99686.55;1840699;77;21032;-70
2021/07/24 09:54:23;;;;;;;8.15;7.35;;;;;;;28.91;38.54;99688.44;1831581;77;21037;-70
2021/07/24 09:56:50;;;;;;;7.40;6.78;;;;;;;28.93;38.64;99685.41;1823029;77;21088;-70
2021/07/24 09:59:26;;;;;;;9.88;6.97;;;;;;;28.95;39.22;99685.38;1818971;77;21010;-69
2021/07/24 10:01:59;;;;;;;7.50;6.75;;;;;;;28.97;38.90;99689.99;1810609;77;21889;-70
2021/07/24 10:07:01;;;;;;;7.47;6.70;;;;;;;29.05;39.57;99687.73;1791386;78;22135;-69
2021/07/24 10:09:30;;;;;;;7.25;6.60;;;;;;;29.05;40.02;99683.06;1813449;78;21480;-69
2021/07/24 10:11:57;;;;;;;7.72;6.70;;;;;;;29.10;40.28;99687.67;1750582;79;21191;-69
2021/07/24 10:14:24;;;;;;;7.65;6.97;;;;;;;29.13;40.28;99679.73;1751200;80;21555;-69
2021/07/24 10:16:53;;;;;;;7.40;6.70;;;;;;;29.17;40.49;99687.61;1794331;78;21476;-69
2021/07/24 10:19:21;;;;;;;7.67;6.97;;;;;;;29.21;40.31;99685.11;1789280;78;21104;-69
2021/07/24 10:21:49;;;;;;;7.70;6.90;;;;;;;29.24;40.54;99685.87;1753429;80;21066;-69
2021/07/24 10:24:15;;;;;;;7.65;6.95;;;;;;;29.28;40.45;99686.09;1756066;80;21791;-70
2021/07/24 10:26:58;;;;;;;6.75;6.17;;;;;;;29.33;40.50;99690.95;1755017;80;20993;-69
2021/07/24 10:29:29;;;;;;;7.20;6.60;;;;;;;29.37;40.53;99691.19;1746014;81;21527;-70
2021/07/24 10:32:04;;;;;;;7.35;6.58;;;;;;;29.40;40.70;99690.61;1799974;78;21556;-69
2021/07/24 10:34:33;;;;;;;7.08;6.47;;;;;;;29.43;40.85;99683.16;1766183;78;21048;-69
2021/07/24 10:36:59;;;;;;;7.17;6.58;;;;;;;29.45;40.89;99689.71;1785954;78;21099;-68
2021/07/24 10:39:26;;;;;;;8.13;7.42;;;;;;;29.45;40.88;99689.14;1733114;80;21002;-69
2021/07/24 10:42:10;;;;;;;7.47;6.78;;;;;;;29.48;40.76;99694.04;1765406;80;21073;-70
2021/07/24 10:44:41;;;;;;;7.20;6.50;;;;;;;29.48;40.89;99683.09;1750780;79;20997;-70
2021/07/24 10:47:11;;;;;;;7.12;6.53;;;;;;;29.49;40.92;99686.64;1764360;80;21087;-68
2021/07/24 10:49:50;;;;;;;7.53;6.75;;;;;;;29.48;40.74;99689.94;1749095;80;21209;-69
2021/07/24 10:52:16;;;;;;;7.35;6.75;;;;;;;29.50;40.91;99693.75;1764377;79;21545;-70
2021/07/24 10:55:07;;;;;;;7.17;6.47;;;;;;;29.51;40.82;99687.16;1749697;79;21576;-69
2021/07/24 10:57:57;;;;;;;7.58;6.65;;;;;;;29.52;40.79;99689.60;1746952;80;21598;-69
2021/07/24 11:00:32;;;;;;;7.55;6.70;;;;;;;29.54;40.77;99686.02;1738626;81;21056;-70
2021/07/24 11:02:58;;;;;;;6.67;6.08;;;;;;;29.56;40.68;99680.25;1747852;78;21156;-69
2021/07/24 11:05:28;;;;;;;7.47;6.42;;;;;;;29.59;40.48;99681.84;1785200;78;21022;-72
2021/07/24 11:07:55;;;;;;;7.28;6.67;;;;;;;29.61;40.40;99671.94;1755809;80;21071;-71
2021/07/24 11:10:22;;;;;;;7.15;6.45;;;;;;;29.68;40.20;99677.06;1765603;80;21594;-70
2021/07/24 11:12:49;;;;;;;7.10;6.45;;;;;;;29.72;40.17;99678.09;1746153;80;21412;-70
2021/07/24 11:15:20;;;;;;;7.33;6.58;;;;;;;29.77;40.14;99679.42;1745910;80;21085;-69
2021/07/24 11:18:25;;;;;;;7.53;6.85;;;;;;;29.81;40.15;99673.61;1753067;80;21541;-69
2021/07/24 11:20:52;;;;;;;7.50;6.90;;;;;;;29.86;40.15;99673.50;1744496;80;21623;-70
2021/07/24 11:23:19;;;;;;;7.17;6.58;;;;;;;29.90;40.16;99673.19;1744792;80;21507;-70
2021/07/24 11:25:48;;;;;;;6.78;6.15;;;;;;;29.94;40.04;99668.74;1745782;80;21528;-71
2021/07/24 11:28:23;;;;;;;7.65;7.05;;;;;;;29.98;39.97;99664.29;1747292;80;21824;-69
2021/07/24 11:30:58;;;;;;;6.90;6.05;;;;;;;30.02;39.96;99672.73;1744564;80;21103;-69
2021/07/24 11:33:30;;;;;;;6.95;6.33;;;;;;;30.05;39.92;99678.15;1766015;80;21088;-69
2021/07/24 11:36:05;;;;;;;8.07;7.30;;;;;;;30.05;39.89;99677.58;1758327;80;20991;-69
2021/07/24 11:38:32;;;;;;;7.60;6.72;;;;;;;30.06;40.02;99686.08;1753947;80;21551;-69
2021/07/24 11:41:01;;;;;;;7.33;6.67;;;;;;;30.06;40.07;99681.97;1751565;80;21089;-70
2021/07/24 11:43:28;;;;;;;7.05;6.45;;;;;;;30.06;40.06;99690.75;1765899;80;20991;-69